Time;durP1;ratioP1;P1;durP2;ratioP2;P2;SDS_P1;SDS_P2;PMS_P1;PMS_P2;Temp;Humidity;BMP_temperature;BMP_pressure;BME280_temperature;BME280_humidity;BME280_pressure;Samples;Min_cycle;Max_cycle;Signal;HPM_P1;HPM_P2
2022/06/28 00:02:22;;;;;;;;;;;15.30;99.90;;;;;;5052766;28;19924;-73
2022/06/28 00:04:47;;;;;;;;;;;15.30;99.90;;;;;;5050305;28;19921;-74
2022/06/28 00:07:13;;;;;;;;;;;15.30;99.90;;;;;;5071807;28;19925;-73
2022/06/28 00:09:38;;;;;;;;;;;15.20;99.90;;;;;;5052450;28;19921;-72
2022/06/28 00:12:04;;;;;;;;;;;15.20;99.90;;;;;;5069112;28;19921;-72
2022/06/28 00:17:14;;;;;;;;;;;15.10;99.90;;;;;;5047032;28;19971;-72
2022/06/28 00:19:39;;;;;;;;;;;15.10;99.90;;;;;;5065648;28;19922;-73
2022/06/28 00:22:05;;;;;;;;;;;15.10;99.90;;;;;;5065931;28;19921;-72
2022/06/28 00:24:30;;;;;;;;;;;15.00;99.90;;;;;;5077294;28;19975;-72
2022/06/28 00:26:56;;;;;;;;;;;15.00;99.90;;;;;;5035763;28;19975;-73
2022/06/28 00:29:21;;;;;;;;;;;15.00;99.90;;;;;;5035849;28;19921;-72
2022/06/28 00:31:47;;;;;;;;;;;15.00;99.90;;;;;;5048975;28;19933;-72
2022/06/28 00:34:13;;;;;;;;;;;15.00;99.90;;;;;;5037085;28;19925;-72
2022/06/28 00:36:38;;;;;;;;;;;15.00;99.90;;;;;;5086965;28;19925;-73
2022/06/28 00:39:04;;;;;;;;;;;15.00;99.90;;;;;;5055346;28;20376;-73
2022/06/28 00:41:29;;;;;;;;;;;14.90;99.90;;;;;;5072812;28;19982;-72
2022/06/28 00:43:55;;;;;;;;;;;14.90;99.90;;;;;;5049158;28;20361;-73
2022/06/28 00:46:20;;;;;;;;;;;14.90;99.90;;;;;;5052718;28;19929;-73
2022/06/28 00:48:46;;;;;;;;;;;14.90;99.90;;;;;;5075066;28;19974;-72
2022/06/28 00:51:12;;;;;;;;;;;14.90;99.90;;;;;;5065135;28;19921;-73
2022/06/28 00:53:37;;;;;;;;;;;14.90;99.90;;;;;;5053017;28;20015;-73
2022/06/28 00:56:03;;;;;;;;;;;14.80;99.90;;;;;;5052535;28;19928;-72
2022/06/28 00:58:28;;;;;;;;;;;14.80;99.90;;;;;;5054109;28;20035;-72
2022/06/28 01:00:54;;;;;;;;;;;14.80;99.90;;;;;;5069017;28;19978;-73
2022/06/28 01:03:21;;;;;;;;;;;14.70;99.90;;;;;;5077023;28;20340;-73
2022/06/28 01:05:47;;;;;;;;;;;14.70;99.90;;;;;;5069287;28;20390;-73
2022/06/28 01:08:13;;;;;;;;;;;14.70;99.90;;;;;;5069040;28;20056;-73
2022/06/28 01:10:39;;;;;;;;;;;14.70;99.90;;;;;;5052165;28;20012;-73
2022/06/28 01:13:05;;;;;;;;;;;14.60;99.90;;;;;;5068963;28;19921;-72
2022/06/28 01:15:31;;;;;;;;;;;14.60;99.90;;;;;;5055020;28;19929;-72
2022/06/28 01:17:58;;;;;;;;;;;14.60;99.90;;;;;;5052052;28;19927;-72
2022/06/28 01:20:24;;;;;;;;;;;14.60;99.90;;;;;;5054371;28;20036;-72
2022/06/28 01:22:50;;;;;;;;;;;14.50;99.90;;;;;;5072488;28;20412;-72
2022/06/28 01:25:15;;;;;;;;;;;14.50;99.90;;;;;;5039074;28;19927;-71
2022/06/28 01:27:41;;;;;;;;;;;14.50;99.90;;;;;;5038260;28;19924;-72
2022/06/28 01:30:07;;;;;;;;;;;14.50;99.90;;;;;;5052595;28;19921;-71
2022/06/28 01:32:33;;;;;;;;;;;14.40;99.90;;;;;;5055273;28;19925;-72
2022/06/28 01:34:59;;;;;;;;;;;14.40;99.90;;;;;;5037880;28;19920;-73
2022/06/28 01:37:25;;;;;;;;;;;14.50;99.90;;;;;;5038404;28;20373;-73
2022/06/28 01:39:51;;;;;;;;;;;14.50;99.90;;;;;;5087962;28;19971;-73
2022/06/28 01:42:16;;;;;;;;;;;14.50;99.90;;;;;;5052137;28;19927;-71
2022/06/28 01:44:43;;;;;;;;;;;14.50;99.90;;;;;;5071645;28;19936;-72
2022/06/28 01:47:10;;;;;;;;;;;14.50;99.90;;;;;;5088242;28;19920;-73
2022/06/28 01:49:36;;;;;;;;;;;14.50;99.90;;;;;;5054220;28;20015;-74
2022/06/28 01:52:01;;;;;;;;;;;14.60;99.90;;;;;;5071500;28;20051;-74
2022/06/28 01:54:27;;;;;;;;;;;14.50;99.90;;;;;;5054031;28;20503;-73
2022/06/28 01:56:52;;;;;;;;;;;14.40;99.90;;;;;;5055002;28;19920;-73
2022/06/28 01:59:18;;;;;;;;;;;14.40;99.90;;;;;;5069147;28;19990;-73
2022/06/28 02:01:43;;;;;;;;;;;14.40;99.90;;;;;;5059781;28;20031;-73
2022/06/28 02:04:29;;;;;;;;;;;14.30;99.90;;;;;;5034698;28;19921;-72
2022/06/28 02:06:55;;;;;;;;;;;14.30;99.90;;;;;;5028687;28;19928;-72
2022/06/28 02:09:21;;;;;;;;;;;14.20;99.90;;;;;;5051242;28;20301;-73
2022/06/28 02:11:46;;;;;;;;;;;14.20;99.90;;;;;;5043920;28;19921;-73
2022/06/28 02:14:11;;;;;;;;;;;14.10;99.90;;;;;;5054369;28;20023;-73
2022/06/28 02:16:37;;;;;;;;;;;14.10;99.90;;;;;;5054676;28;20327;-73
2022/06/28 02:19:03;;;;;;;;;;;14.00;99.90;;;;;;5087242;28;19968;-73
2022/06/28 02:21:33;;;;;;;;;;;14.00;99.90;;;;;;5087776;28;19924;-72
2022/06/28 02:23:59;;;;;;;;;;;14.10;99.90;;;;;;5060783;28;19921;-72
2022/06/28 02:26:25;;;;;;;;;;;14.10;99.90;;;;;;5034608;28;19921;-73
2022/06/28 02:28:50;;;;;;;;;;;14.10;99.90;;;;;;5079515;28;20440;-72
2022/06/28 02:31:15;;;;;;;;;;;14.10;99.90;;;;;;5054058;28;20373;-72
2022/06/28 02:33:42;;;;;;;;;;;14.10;99.90;;;;;;5035298;28;19928;-73
2022/06/28 02:41:36;;;;;;;;;;;14.20;99.90;;;;;;5087108;28;19925;-73
2022/06/28 02:44:02;;;;;;;;;;;14.10;99.90;;;;;;5039131;28;19920;-73
2022/06/28 02:46:27;;;;;;;;;;;14.10;99.90;;;;;;5083784;28;20015;-73
2022/06/28 02:48:53;;;;;;;;;;;14.10;99.90;;;;;;5090910;28;19920;-73
2022/06/28 02:51:20;;;;;;;;;;;14.10;99.90;;;;;;5080378;28;20372;-73
2022/06/28 02:53:46;;;;;;;;;;;14.10;99.90;;;;;;5056719;28;20319;-73
2022/06/28 02:56:11;;;;;;;;;;;14.10;99.90;;;;;;5051769;28;19928;-73
2022/06/28 02:58:37;;;;;;;;;;;14.10;99.90;;;;;;5055051;28;19921;-73
2022/06/28 03:01:02;;;;;;;;;;;14.10;99.90;;;;;;5056116;28;20026;-73
2022/06/28 03:03:28;;;;;;;;;;;14.10;99.90;;;;;;5055777;28;20300;-73
2022/06/28 03:05:53;;;;;;;;;;;14.10;99.90;;;;;;5055595;28;19924;-73
2022/06/28 03:08:19;;;;;;;;;;;14.00;99.90;;;;;;5070512;28;19927;-73
2022/06/28 03:10:44;;;;;;;;;;;14.00;99.90;;;;;;5090201;28;19924;-72
2022/06/28 03:13:09;;;;;;;;;;;14.00;99.90;;;;;;5088599;28;19966;-73
2022/06/28 03:15:35;;;;;;;;;;;14.00;99.90;;;;;;5040020;28;19920;-73
2022/06/28 03:18:01;;;;;;;;;;;13.80;99.90;;;;;;5064235;28;20327;-73
2022/06/28 03:20:28;;;;;;;;;;;13.90;99.90;;;;;;5080133;28;19925;-73
2022/06/28 03:22:54;;;;;;;;;;;13.90;99.90;;;;;;5053209;28;19960;-73
2022/06/28 03:25:20;;;;;;;;;;;13.80;99.90;;;;;;5039857;28;19920;-73
2022/06/28 03:27:45;;;;;;;;;;;13.80;99.90;;;;;;5054814;28;20291;-73
2022/06/28 03:30:11;;;;;;;;;;;13.80;99.90;;;;;;5039216;28;19927;-73
2022/06/28 03:32:37;;;;;;;;;;;13.80;99.90;;;;;;5030443;28;20027;-73
2022/06/28 03:35:02;;;;;;;;;;;13.90;99.90;;;;;;5050070;28;20031;-73
2022/06/28 03:37:28;;;;;;;;;;;13.70;99.90;;;;;;5070622;28;19925;-73
2022/06/28 03:39:53;;;;;;;;;;;13.70;99.90;;;;;;5075388;28;20339;-73
2022/06/28 03:42:19;;;;;;;;;;;13.70;99.90;;;;;;5079519;28;19962;-73
2022/06/28 03:44:45;;;;;;;;;;;13.70;99.90;;;;;;5063187;28;19928;-73
2022/06/28 03:47:10;;;;;;;;;;;13.70;99.90;;;;;;5032928;28;19946;-73
2022/06/28 03:49:36;;;;;;;;;;;13.70;99.90;;;;;;5055937;28;20300;-72
2022/06/28 03:52:01;;;;;;;;;;;13.70;99.90;;;;;;5070940;28;20316;-73
2022/06/28 03:54:27;;;;;;;;;;;13.70;99.90;;;;;;5054412;28;19927;-73
2022/06/28 03:56:52;;;;;;;;;;;13.70;99.90;;;;;;5053483;28;19928;-73
2022/06/28 03:59:18;;;;;;;;;;;13.70;99.90;;;;;;5054677;28;19921;-72
2022/06/28 04:01:43;;;;;;;;;;;13.70;99.90;;;;;;5059218;28;19932;-73
2022/06/28 04:04:09;;;;;;;;;;;13.70;99.90;;;;;;5033656;28;19943;-72
2022/06/28 04:06:34;;;;;;;;;;;13.70;99.90;;;;;;5087571;28;19921;-72
2022/06/28 04:09:00;;;;;;;;;;;13.70;99.90;;;;;;5056018;28;19921;-72
2022/06/28 04:11:25;;;;;;;;;;;13.70;99.90;;;;;;5052759;28;20432;-72
2022/06/28 04:13:52;;;;;;;;;;;13.70;99.90;;;;;;5054015;28;19920;-72
2022/06/28 04:16:19;;;;;;;;;;;13.70;99.90;;;;;;5054813;28;19963;-73
2022/06/28 04:18:45;;;;;;;;;;;13.80;99.90;;;;;;5045391;28;19971;-73
2022/06/28 04:21:11;;;;;;;;;;;13.70;99.90;;;;;;5036692;28;19978;-73
2022/06/28 04:23:37;;;;;;;;;;;13.70;99.90;;;;;;5051062;28;19921;-73
2022/06/28 04:26:03;;;;;;;;;;;13.70;99.90;;;;;;5041247;28;19954;-73
2022/06/28 04:28:28;;;;;;;;;;;13.70;99.90;;;;;;5039524;28;19974;-72
2022/06/28 04:30:54;;;;;;;;;;;13.70;99.90;;;;;;5019888;28;19921;-72
2022/06/28 04:33:20;;;;;;;;;;;13.70;99.90;;;;;;5070189;28;19920;-73
2022/06/28 04:35:45;;;;;;;;;;;13.80;99.90;;;;;;5054558;28;19920;-72
2022/06/28 04:38:11;;;;;;;;;;;13.80;99.90;;;;;;5036975;28;19928;-72
2022/06/28 04:40:36;;;;;;;;;;;13.80;99.90;;;;;;5051788;28;19924;-72
2022/06/28 04:43:02;;;;;;;;;;;13.80;99.90;;;;;;5056044;28;20376;-72
2022/06/28 04:45:28;;;;;;;;;;;13.90;99.90;;;;;;5069827;28;19920;-72
2022/06/28 04:47:54;;;;;;;;;;;13.90;99.90;;;;;;5054265;28;19932;-72
2022/06/28 04:50:19;;;;;;;;;;;13.90;99.90;;;;;;5027293;28;20015;-72
2022/06/28 04:52:45;;;;;;;;;;;13.90;99.90;;;;;;5046083;28;19920;-72
2022/06/28 04:55:10;;;;;;;;;;;14.00;99.90;;;;;;5054767;28;20016;-72
2022/06/28 04:57:36;;;;;;;;;;;14.00;99.90;;;;;;5028806;28;19943;-72
2022/06/28 05:00:03;;;;;;;;;;;14.00;99.90;;;;;;5052628;28;19925;-72
2022/06/28 05:02:28;;;;;;;;;;;14.10;99.90;;;;;;5030551;28;19943;-72
2022/06/28 05:04:54;;;;;;;;;;;14.10;99.90;;;;;;5048734;28;20284;-72
2022/06/28 05:07:19;;;;;;;;;;;14.20;99.90;;;;;;5054663;28;20023;-72
2022/06/28 05:09:44;;;;;;;;;;;14.30;99.90;;;;;;5055337;28;19967;-72
2022/06/28 05:12:10;;;;;;;;;;;14.30;99.90;;;;;;5037441;28;19937;-72
2022/06/28 05:14:35;;;;;;;;;;;14.40;99.90;;;;;;5050374;28;19924;-72
2022/06/28 05:17:01;;;;;;;;;;;14.40;99.90;;;;;;5037145;28;19991;-72
2022/06/28 05:19:27;;;;;;;;;;;14.30;99.90;;;;;;5054935;28;20277;-72
2022/06/28 05:21:53;;;;;;;;;;;14.50;99.90;;;;;;5038398;28;19929;-73
2022/06/28 05:24:18;;;;;;;;;;;14.50;99.90;;;;;;5056403;28;20460;-72
2022/06/28 05:26:44;;;;;;;;;;;14.50;99.90;;;;;;5057619;28;19924;-73
2022/06/28 05:29:10;;;;;;;;;;;14.60;99.90;;;;;;5031102;28;20296;-73
2022/06/28 05:31:38;;;;;;;;;;;14.70;99.90;;;;;;5031396;28;19987;-73
2022/06/28 05:34:04;;;;;;;;;;;14.70;99.90;;;;;;5089532;28;20308;-73
2022/06/28 05:36:29;;;;;;;;;;;14.80;99.90;;;;;;5057171;28;19924;-72
2022/06/28 05:38:55;;;;;;;;;;;14.80;99.90;;;;;;5055527;28;19967;-73
2022/06/28 05:41:21;;;;;;;;;;;14.90;99.90;;;;;;5053475;28;19932;-73
2022/06/28 05:43:46;;;;;;;;;;;15.00;99.90;;;;;;5047183;28;19924;-72
2022/06/28 05:46:12;;;;;;;;;;;15.10;99.90;;;;;;5033130;28;19925;-73
2022/06/28 05:48:37;;;;;;;;;;;15.20;99.90;;;;;;5067395;28;20277;-73
2022/06/28 05:51:03;;;;;;;;;;;15.30;99.90;;;;;;5048177;28;19939;-73
2022/06/28 05:53:29;;;;;;;;;;;15.40;99.90;;;;;;5040502;28;20033;-72
2022/06/28 05:55:54;;;;;;;;;;;15.40;99.90;;;;;;5072523;28;19943;-73
2022/06/28 05:58:20;;;;;;;;;;;15.40;99.90;;;;;;5069148;28;19920;-72
2022/06/28 06:00:45;;;;;;;;;;;15.40;99.90;;;;;;5071372;28;20019;-73
2022/06/28 06:03:11;;;;;;;;;;;15.40;99.90;;;;;;5044635;28;19983;-73
2022/06/28 06:05:36;;;;;;;;;;;15.40;99.90;;;;;;5072092;28;19927;-73
2022/06/28 06:08:02;;;;;;;;;;;15.30;99.90;;;;;;5056938;28;19995;-74
2022/06/28 06:10:28;;;;;;;;;;;15.30;99.90;;;;;;5030344;28;19971;-73
2022/06/28 06:12:53;;;;;;;;;;;15.30;99.90;;;;;;5024076;28;19967;-73
2022/06/28 06:15:20;;;;;;;;;;;15.30;99.90;;;;;;5055861;28;19920;-73
2022/06/28 06:17:46;;;;;;;;;;;15.30;99.90;;;;;;5072806;28;19921;-74
2022/06/28 06:20:11;;;;;;;;;;;15.50;99.90;;;;;;5042943;28;20023;-73
2022/06/28 06:22:37;;;;;;;;;;;15.70;99.90;;;;;;5051660;28;20381;-73
2022/06/28 06:25:03;;;;;;;;;;;15.80;99.90;;;;;;5087718;28;20333;-67
2022/06/28 06:27:29;;;;;;;;;;;16.00;99.90;;;;;;5045961;28;20011;-67
2022/06/28 06:29:54;;;;;;;;;;;16.10;99.90;;;;;;5056816;28;20006;-67
2022/06/28 06:32:20;;;;;;;;;;;16.30;99.90;;;;;;5085908;28;20003;-66
2022/06/28 06:34:46;;;;;;;;;;;16.40;99.90;;;;;;5055119;28;19921;-69
2022/06/28 06:37:11;;;;;;;;;;;16.50;99.90;;;;;;5044346;28;19925;-68
2022/06/28 06:39:37;;;;;;;;;;;16.60;99.90;;;;;;5037587;28;19928;-70
2022/06/28 06:42:03;;;;;;;;;;;16.70;99.90;;;;;;5055386;28;19971;-71
2022/06/28 06:44:28;;;;;;;;;;;16.70;99.90;;;;;;5039579;28;19920;-71
2022/06/28 06:46:55;;;;;;;;;;;16.80;99.90;;;;;;5084621;28;19921;-73
2022/06/28 06:49:20;;;;;;;;;;;16.90;99.90;;;;;;5036778;28;19928;-71
2022/06/28 06:51:48;;;;;;;;;;;17.00;99.90;;;;;;5049441;28;19920;-73
2022/06/28 06:54:14;;;;;;;;;;;17.10;99.90;;;;;;5053887;28;20007;-74
2022/06/28 06:56:40;;;;;;;;;;;17.20;99.90;;;;;;5055823;28;19920;-73
2022/06/28 06:59:07;;;;;;;;;;;17.20;99.90;;;;;;5053999;28;20003;-72
2022/06/28 07:01:33;;;;;;;;;;;17.20;99.90;;;;;;5046154;28;20083;-74
2022/06/28 07:03:59;;;;;;;;;;;17.30;99.90;;;;;;5019687;28;20373;-75
2022/06/28 07:06:24;;;;;;;;;;;17.40;99.90;;;;;;5060221;28;20010;-78
2022/06/28 07:08:50;;;;;;;;;;;17.50;99.90;;;;;;5052360;28;19921;-76
2022/06/28 07:11:15;;;;;;;;;;;17.60;99.90;;;;;;5052500;28;20365;-76
2022/06/28 07:13:41;;;;;;;;;;;17.60;99.90;;;;;;5038117;28;19921;-76
2022/06/28 07:16:06;;;;;;;;;;;17.80;99.90;;;;;;5019724;28;19927;-76
2022/06/28 07:18:32;;;;;;;;;;;17.70;99.90;;;;;;5021585;28;19929;-76
2022/06/28 07:20:58;;;;;;;;;;;17.70;99.90;;;;;;5036464;28;20388;-76
2022/06/28 07:23:24;;;;;;;;;;;17.70;99.90;;;;;;5045696;28;20280;-76
2022/06/28 07:25:49;;;;;;;;;;;17.80;99.90;;;;;;5056700;28;19920;-76
2022/06/28 07:28:15;;;;;;;;;;;17.90;99.90;;;;;;5054175;28;19927;-76
2022/06/28 07:30:40;;;;;;;;;;;17.90;99.90;;;;;;5035828;28;19927;-76
2022/06/28 07:33:06;;;;;;;;;;;17.90;99.90;;;;;;5051498;28;19927;-76
2022/06/28 07:35:31;;;;;;;;;;;18.00;99.90;;;;;;5050146;28;19920;-76
2022/06/28 07:37:57;;;;;;;;;;;18.10;99.90;;;;;;5068668;28;19932;-76
2022/06/28 07:40:22;;;;;;;;;;;18.00;99.90;;;;;;5069729;28;19928;-77
2022/06/28 07:42:48;;;;;;;;;;;17.90;99.90;;;;;;5071236;28;19972;-76
2022/06/28 07:45:14;;;;;;;;;;;17.90;99.90;;;;;;5060886;28;19960;-76
2022/06/28 07:47:39;;;;;;;;;;;17.90;99.90;;;;;;5027893;28;19920;-76
2022/06/28 07:52:49;;;;;;;;;;;17.80;99.90;;;;;;5035764;28;19921;-76
2022/06/28 07:55:14;;;;;;;;;;;17.80;99.90;;;;;;5038274;28;19921;-76
2022/06/28 07:57:40;;;;;;;;;;;17.80;99.90;;;;;;5046035;28;19920;-76
2022/06/28 08:00:06;;;;;;;;;;;17.80;99.90;;;;;;5054306;28;19920;-76
2022/06/28 08:02:32;;;;;;;;;;;17.80;99.90;;;;;;5033029;28;19920;-76
2022/06/28 08:04:57;;;;;;;;;;;17.80;99.90;;;;;;5058955;28;19920;-69
2022/06/28 08:07:23;;;;;;;;;;;17.80;99.90;;;;;;5056997;28;19962;-68
2022/06/28 08:09:48;;;;;;;;;;;17.90;99.90;;;;;;5054960;28;20003;-69
2022/06/28 08:12:14;;;;;;;;;;;17.90;99.90;;;;;;5036910;28;20025;-68
2022/06/28 08:14:40;;;;;;;;;;;18.10;99.90;;;;;;5040633;28;19920;-68
2022/06/28 08:17:05;;;;;;;;;;;18.20;99.90;;;;;;5038111;28;19935;-68
2022/06/28 08:19:31;;;;;;;;;;;18.30;99.90;;;;;;5073715;28;19928;-67
2022/06/28 08:21:56;;;;;;;;;;;18.50;99.90;;;;;;5068357;28;20384;-72
2022/06/28 08:24:22;;;;;;;;;;;18.60;99.90;;;;;;5068682;28;19920;-72
2022/06/28 08:26:47;;;;;;;;;;;18.70;99.90;;;;;;5087181;28;19921;-72
2022/06/28 08:29:14;;;;;;;;;;;18.70;99.90;;;;;;5054198;28;20328;-72
2022/06/28 08:31:39;;;;;;;;;;;18.60;99.90;;;;;;5053087;28;20331;-72
2022/06/28 08:34:05;;;;;;;;;;;18.60;99.90;;;;;;5053301;28;19920;-72
2022/06/28 08:36:30;;;;;;;;;;;18.70;99.90;;;;;;5061890;28;20296;-72
2022/06/28 08:38:56;;;;;;;;;;;18.80;99.90;;;;;;5038968;28;19960;-73
2022/06/28 08:41:23;;;;;;;;;;;18.90;99.90;;;;;;5071413;28;19924;-73
2022/06/28 08:43:49;;;;;;;;;;;19.00;99.90;;;;;;5038678;28;20447;-73
2022/06/28 08:46:15;;;;;;;;;;;19.10;99.90;;;;;;5071912;28;19921;-73
2022/06/28 08:48:42;;;;;;;;;;;19.10;99.90;;;;;;5038640;28;19924;-73
2022/06/28 08:51:08;;;;;;;;;;;19.10;99.90;;;;;;5038457;28;19928;-73
2022/06/28 08:53:35;;;;;;;;;;;19.10;99.90;;;;;;5038496;28;20376;-73
2022/06/28 08:56:01;;;;;;;;;;;19.20;99.90;;;;;;5074455;28;19920;-73
2022/06/28 08:58:27;;;;;;;;;;;19.20;99.90;;;;;;5057571;28;20319;-73
2022/06/28 09:00:53;;;;;;;;;;;19.20;99.90;;;;;;5092399;28;20033;-73
2022/06/28 09:03:19;;;;;;;;;;;19.20;99.90;;;;;;5058568;28;19978;-73
2022/06/28 09:05:44;;;;;;;;;;;19.10;99.90;;;;;;5058731;28;19924;-73
2022/06/28 09:08:10;;;;;;;;;;;19.00;99.90;;;;;;5058980;28;19935;-73
2022/06/28 09:10:36;;;;;;;;;;;18.90;99.90;;;;;;5042344;28;19928;-73
2022/06/28 09:13:09;;;;;;;;;;;19.00;99.90;;;;;;5058520;28;19920;-73
2022/06/28 09:15:52;;;;;;;;;;;19.20;99.90;;;;;;5042015;28;19920;-73
2022/06/28 09:18:19;;;;;;;;;;;19.50;99.90;;;;;;5031924;28;19924;-73
2022/06/28 09:20:44;;;;;;;;;;;19.70;99.90;;;;;;5082260;28;19954;-73
2022/06/28 09:23:20;;;;;;;;;;;19.90;99.90;;;;;;5075027;28;20376;-73
2022/06/28 09:25:47;;;;;;;;;;;19.90;99.90;;;;;;5039866;28;19966;-73
2022/06/28 09:28:21;;;;;;;;;;;19.70;99.90;;;;;;5072069;28;19925;-73
2022/06/28 09:30:46;;;;;;;;;;;19.80;99.90;;;;;;5038618;28;20340;-73
2022/06/28 09:33:24;;;;;;;;;;;19.80;99.90;;;;;;5054939;28;19925;-73
2022/06/28 09:35:53;;;;;;;;;;;19.80;99.90;;;;;;5065010;28;19921;-73
2022/06/28 09:38:28;;;;;;;;;;;19.60;99.90;;;;;;5041409;28;19928;-73
2022/06/28 09:40:54;;;;;;;;;;;19.60;99.90;;;;;;5041256;28;20011;-73
2022/06/28 09:43:19;;;;;;;;;;;19.60;99.90;;;;;;5035535;28;20373;-73
2022/06/28 09:45:50;;;;;;;;;;;19.70;99.90;;;;;;5038325;28;19967;-74
2022/06/28 09:48:16;;;;;;;;;;;19.90;99.90;;;;;;5062342;28;20372;-74
2022/06/28 09:50:42;;;;;;;;;;;20.00;99.90;;;;;;5040833;28;20373;-74
2022/06/28 09:53:08;;;;;;;;;;;20.10;99.90;;;;;;5038246;28;19920;-74
2022/06/28 09:55:33;;;;;;;;;;;20.20;99.90;;;;;;5033881;28;19921;-74
2022/06/28 09:58:00;;;;;;;;;;;20.40;99.90;;;;;;5032249;28;19921;-75
2022/06/28 10:00:26;;;;;;;;;;;20.60;99.90;;;;;;5050373;28;19924;-75
2022/06/28 10:02:53;;;;;;;;;;;20.70;99.90;;;;;;5090821;28;20380;-74
2022/06/28 10:05:19;;;;;;;;;;;20.70;99.90;;;;;;5056676;28;19924;-75
2022/06/28 10:07:45;;;;;;;;;;;20.90;99.90;;;;;;5039413;28;20407;-75
2022/06/28 10:10:11;;;;;;;;;;;21.10;99.90;;;;;;5039981;28;19927;-75
2022/06/28 10:15:23;;;;;;;;;;;20.90;99.90;;;;;;5041514;28;19921;-75
2022/06/28 10:17:51;;;;;;;;;;;20.90;99.90;;;;;;5079985;28;19927;-75
2022/06/28 10:20:19;;;;;;;;;;;21.00;99.90;;;;;;5055915;28;20399;-75
2022/06/28 10:22:44;;;;;;;;;;;21.10;99.90;;;;;;5056814;28;19921;-75
2022/06/28 10:25:15;;;;;;;;;;;21.20;99.90;;;;;;5039801;28;19974;-75
2022/06/28 10:27:50;;;;;;;;;;;21.30;99.90;;;;;;5056475;28;19921;-75
2022/06/28 10:30:17;;;;;;;;;;;21.40;99.90;;;;;;5076622;28;19920;-75
2022/06/28 10:32:48;;;;;;;;;;;21.50;99.90;;;;;;5039359;28;19928;-75
2022/06/28 10:35:32;;;;;;;;;;;21.70;99.90;;;;;;5033642;28;19968;-75
2022/06/28 10:38:14;;;;;;;;;;;21.70;99.90;;;;;;5036907;28;20385;-75
2022/06/28 10:40:49;;;;;;;;;;;21.60;99.90;;;;;;5039070;28;19934;-75
2022/06/28 10:43:16;;;;;;;;;;;21.70;99.90;;;;;;5040206;28;19984;-75
2022/06/28 10:45:59;;;;;;;;;;;21.80;99.90;;;;;;5039457;28;20761;-75
2022/06/28 10:48:25;;;;;;;;;;;21.80;99.90;;;;;;5071978;28;19927;-75
2022/06/28 10:51:00;;;;;;;;;;;21.50;99.90;;;;;;5044721;28;19921;-75
2022/06/28 10:53:27;;;;;;;;;;;21.70;99.90;;;;;;5059276;28;19920;-75
2022/06/28 10:56:11;;;;;;;;;;;21.80;99.90;;;;;;5057425;28;19925;-76
2022/06/28 10:58:55;;;;;;;;;;;21.80;99.90;;;;;;5072854;28;20330;-76
2022/06/28 11:01:39;;;;;;;;;;;21.90;99.90;;;;;;5074866;28;19951;-76
2022/06/28 11:04:19;;;;;;;;;;;21.90;99.90;;;;;;5053031;28;19927;-76
2022/06/28 11:06:46;;;;;;;;;;;21.80;99.90;;;;;;5070834;28;20426;-76
2022/06/28 11:09:11;;;;;;;;;;;21.90;99.90;;;;;;5043196;28;20458;-76
2022/06/28 11:11:57;;;;;;;;;;;21.90;99.90;;;;;;5050329;28;19925;-76
2022/06/28 11:14:44;;;;;;;;;;;21.80;99.90;;;;;;5020020;28;19931;-76
2022/06/28 11:17:14;;;;;;;;;;;21.70;99.90;;;;;;5036719;28;19920;-76
2022/06/28 11:19:50;;;;;;;;;;;21.70;99.90;;;;;;5082380;28;19920;-76
2022/06/28 11:22:20;;;;;;;;;;;21.70;99.90;;;;;;5038741;28;19968;-76
2022/06/28 11:24:46;;;;;;;;;;;21.80;99.90;;;;;;5029724;28;20372;-76
2022/06/28 11:27:21;;;;;;;;;;;21.80;99.90;;;;;;5073340;28;19970;-76
2022/06/28 11:29:54;;;;;;;;;;;21.90;99.90;;;;;;5043945;28;19974;-76
2022/06/28 11:32:26;;;;;;;;;;;22.00;99.90;;;;;;5063406;28;19934;-75
2022/06/28 11:35:15;;;;;;;;;;;21.90;99.90;;;;;;5054672;28;20427;-76
2022/06/28 11:37:53;;;;;;;;;;;21.90;99.90;;;;;;5082066;28;19928;-76
2022/06/28 11:40:20;;;;;;;;;;;22.00;99.90;;;;;;5073155;28;19924;-76
2022/06/28 11:42:47;;;;;;;;;;;21.90;99.90;;;;;;5062127;28;19925;-76
2022/06/28 11:45:13;;;;;;;;;;;21.90;99.90;;;;;;5049193;28;20011;-75
2022/06/28 11:47:42;;;;;;;;;;;22.00;99.90;;;;;;5052451;28;20376;-75
2022/06/28 11:50:12;;;;;;;;;;;22.00;99.90;;;;;;5055605;28;19920;-75
2022/06/28 11:53:04;;;;;;;;;;;22.00;99.90;;;;;;5054054;28;20426;-75
2022/06/28 11:55:38;;;;;;;;;;;22.00;99.90;;;;;;5037032;28;20392;-75
2022/06/28 11:58:22;;;;;;;;;;;21.90;99.90;;;;;;5034616;28;19950;-76
2022/06/28 12:01:07;;;;;;;;;;;22.00;99.60;;;;;;5054647;28;19924;-76
2022/06/28 12:03:34;;;;;;;;;;;22.00;99.70;;;;;;5052028;28;19932;-76
2022/06/28 12:06:00;;;;;;;;;;;22.10;97.00;;;;;;5035908;28;20007;-76
2022/06/28 12:08:42;;;;;;;;;;;22.20;96.80;;;;;;5044430;28;19920;-75
2022/06/28 12:11:23;;;;;;;;;;;22.10;97.30;;;;;;5039953;28;19935;-76
2022/06/28 12:13:48;;;;;;;;;;;22.20;97.30;;;;;;5055667;28;19927;-76
2022/06/28 12:16:14;;;;;;;;;;;22.20;97.10;;;;;;5037273;28;20015;-76
2022/06/28 12:18:53;;;;;;;;;;;22.10;97.30;;;;;;5075837;28;19920;-76
2022/06/28 12:21:19;;;;;;;;;;;22.10;98.90;;;;;;5040051;28;19924;-76
2022/06/28 12:23:51;;;;;;;;;;;22.00;99.90;;;;;;5071998;28;19995;-76
2022/06/28 12:26:17;;;;;;;;;;;22.00;99.90;;;;;;5054267;28;19927;-75
2022/06/28 12:28:43;;;;;;;;;;;22.10;99.90;;;;;;5087672;28;19924;-75
2022/06/28 12:31:09;;;;;;;;;;;22.30;96.70;;;;;;5038929;28;20308;-76
2022/06/28 12:33:34;;;;;;;;;;;22.20;98.60;;;;;;5031264;28;19925;-76
2022/06/28 12:36:00;;;;;;;;;;;22.10;96.70;;;;;;5073252;28;19925;-75
2022/06/28 12:38:25;;;;;;;;;;;22.20;98.00;;;;;;5059623;28;19970;-76
2022/06/28 12:40:51;;;;;;;;;;;22.00;99.80;;;;;;5058951;28;19925;-76
2022/06/28 12:43:16;;;;;;;;;;;21.90;98.80;;;;;;5093064;28;19921;-76
2022/06/28 12:45:42;;;;;;;;;;;21.90;98.80;;;;;;5069621;28;20453;-76
2022/06/28 12:48:08;;;;;;;;;;;21.80;99.20;;;;;;5041573;28;19920;-76
2022/06/28 12:50:33;;;;;;;;;;;21.90;99.90;;;;;;5049749;28;20293;-76
2022/06/28 12:52:59;;;;;;;;;;;21.90;98.80;;;;;;5073023;28;20413;-76
2022/06/28 12:55:24;;;;;;;;;;;21.90;98.70;;;;;;5074663;28;19975;-76
2022/06/28 12:57:50;;;;;;;;;;;21.60;96.10;;;;;;5079633;28;19924;-76
2022/06/28 13:00:15;;;;;;;;;;;21.60;98.80;;;;;;5084091;28;19920;-76
2022/06/28 13:02:41;;;;;;;;;;;21.70;99.50;;;;;;5073211;28;20027;-76
2022/06/28 13:05:07;;;;;;;;;;;21.90;98.90;;;;;;5042065;28;19921;-76
2022/06/28 13:07:33;;;;;;;;;;;21.80;98.60;;;;;;5051202;28;19932;-76
2022/06/28 13:09:59;;;;;;;;;;;21.80;99.10;;;;;;5058308;28;19924;-76
2022/06/28 13:12:24;;;;;;;;;;;21.60;99.90;;;;;;5041548;28;19925;-76
2022/06/28 13:14:50;;;;;;;;;;;21.60;99.90;;;;;;5073857;28;19983;-76
2022/06/28 13:17:16;;;;;;;;;;;21.50;99.90;;;;;;5070456;28;20423;-76
2022/06/28 13:19:41;;;;;;;;;;;21.70;99.90;;;;;;5042322;28;19920;-76
2022/06/28 13:22:07;;;;;;;;;;;21.50;99.60;;;;;;5040751;28;19925;-76
2022/06/28 13:24:32;;;;;;;;;;;21.60;99.90;;;;;;5035881;28;20285;-76
2022/06/28 13:26:58;;;;;;;;;;;21.50;97.70;;;;;;5058019;28;20331;-77
2022/06/28 13:29:23;;;;;;;;;;;21.60;99.90;;;;;;5039200;28;19921;-76
2022/06/28 13:31:49;;;;;;;;;;;21.80;99.90;;;;;;5049919;28;20011;-76
2022/06/28 13:34:16;;;;;;;;;;;21.80;99.90;;;;;;5057191;28;19920;-76
2022/06/28 13:36:42;;;;;;;;;;;21.90;99.90;;;;;;5063911;28;20020;-76
2022/06/28 13:39:08;;;;;;;;;;;21.80;99.00;;;;;;5070821;28;20012;-76
2022/06/28 13:41:34;;;;;;;;;;;21.70;99.90;;;;;;5085030;28;19967;-77
2022/06/28 13:43:59;;;;;;;;;;;21.60;99.90;;;;;;5037339;28;19920;-76
2022/06/28 13:46:25;;;;;;;;;;;21.50;99.90;;;;;;5035781;28;19964;-77
2022/06/28 13:48:50;;;;;;;;;;;21.70;99.90;;;;;;5054148;28;19928;-77
2022/06/28 13:51:16;;;;;;;;;;;21.60;99.90;;;;;;5070994;28;19968;-76
2022/06/28 13:53:41;;;;;;;;;;;21.50;99.90;;;;;;5053995;28;19928;-76
2022/06/28 13:56:07;;;;;;;;;;;21.50;99.10;;;;;;5067636;28;19928;-77
2022/06/28 13:58:32;;;;;;;;;;;21.40;99.90;;;;;;5065211;28;19952;-77
2022/06/28 14:00:58;;;;;;;;;;;21.30;99.90;;;;;;5036052;28;20023;-77
2022/06/28 14:03:25;;;;;;;;;;;21.30;99.90;;;;;;5087214;28;19920;-77
2022/06/28 14:05:51;;;;;;;;;;;21.30;99.90;;;;;;5053438;28;20430;-77
2022/06/28 14:08:16;;;;;;;;;;;21.50;99.90;;;;;;5052217;28;20007;-78
2022/06/28 14:10:42;;;;;;;;;;;21.50;99.90;;;;;;5051791;28;20301;-78
2022/06/28 14:13:08;;;;;;;;;;;21.50;99.90;;;;;;5069891;28;20022;-77
2022/06/28 14:15:33;;;;;;;;;;;21.50;99.90;;;;;;5081602;28;19932;-77
2022/06/28 14:17:59;;;;;;;;;;;21.60;99.90;;;;;;5070167;28;19935;-77
2022/06/28 14:20:25;;;;;;;;;;;21.60;99.90;;;;;;5036224;28;19921;-77
2022/06/28 14:22:50;;;;;;;;;;;21.70;99.90;;;;;;5036798;28;20320;-77
2022/06/28 14:25:16;;;;;;;;;;;21.70;99.90;;;;;;5052950;28;19928;-77
2022/06/28 14:27:42;;;;;;;;;;;21.70;99.90;;;;;;5074176;28;19975;-78
2022/06/28 14:30:08;;;;;;;;;;;21.80;99.90;;;;;;5086611;28;19927;-77